| Date | Time | Temp. (oF) | Dew Point (oF) | Rel. Hum. (%) | Press. (in.) | Wind Dir. (deg.) | Wind Speed (mph) | Hourly Rainfall (i n.) |
|
|---|---|---|---|---|---|---|---|---|---|
| 1 | 09/21 | 24:00 | 66 | 64 | 96 | 30.10 | 150 | 0 | 0.01 |
| 2 | 09/20 | 23:00 | 66 | 64 | 95 | 30.11 | 150 | 0 | 0.01 |
| 3 | 09/20 | 22:00 | 66 | 64 | 94 | 30.13 | 150 | 0 | 0.01 |
| 4 | 09/20 | 21:00 | 67 | 64 | 92 | 30.13 | 150 | 2 | 0.23 |
| 5 | 09/20 | 20:00 | 70 | 61 | 75 | 30.10 | 310 | 1 | 0.00 |
| 6 | 09/20 | 19:00 | 70 | 61 | 74 | 30.11 | 140 | 2 | 0.00 |
| 7 | 09/20 | 18:00 | 72 | 60 | 68 | 30.14 | 160 | 4 | 0.00 |
| 8 | 09/20 | 17:00 | 75 | 61 | 62 | 30.15 | 130 | 2 | 0.00 |
| 9 | 09/20 | 16:00 | 75 | 61 | 62 | 30.16 | 110 | 7 | 0.00 |
| 10 | 09/20 | 15:00 | 76 | 60 | 58 | 30.15 | 170 | 7 | 0.00 |
| 11 | 09/20 | 14:00 | 76 | 61 | 60 | 30.15 | 150 | 7 | 0.00 |
| 12 | 09/20 | 13:00 | 75 | 60 | 61 | 30.17 | 350 | 6 | 0.00 |
| 13 | 09/20 | 12:00 | 73 | 60 | 66 | 30.18 | 210 | 10 | 0.00 |
| 14 | 09/20 | 11:00 | 70 | 61 | 74 | 30.20 | 140 | 9 | 0.00 |
| 15 | 09/20 | 10:00 | 65 | 60 | 84 | 30.21 | 130 | 4 | 0.00 |
| 16 | 09/20 | 09:00 | 64 | 60 | 87 | 30.22 | 130 | 4 | 0.00 |
| 17 | 09/20 | 08:00 | 60 | 57 | 90 | 30.22 | 130 | 0 | 0.00 |
| 18 | 09/20 | 07:00 | 59 | 56 | 90 | 30.21 | 130 | 0 | 0.00 |
| 19 | 09/20 | 06:00 | 59 | 56 | 90 | 30.20 | 130 | 0 | 0.00 |
| 20 | 09/20 | 05:00 | 59 | 55 | 89 | 30.21 | 130 | 1 | 0.00 |
| 21 | 09/20 | 04:00 | 60 | 56 | 87 | 30.23 | 130 | 0 | 0.00 |
| 22 | 09/20 | 03:00 | 59 | 55 | 87 | 30.24 | 130 | 0 | 0.00 |
| 23 | 09/20 | 02:00 | 59 | 54 | 86 | 30.25 | 130 | 0 | 0.00 |
| 24 | 09/20 | 01:00 | 60 | 55 | 84 | 30.26 | 130 | 0 | 0.00 |